createdAt,value
2023-05-01T00:01:32.327Z,9.07
2023-05-01T00:03:59.197Z,9.60
2023-05-01T00:06:26.201Z,9.43
2023-05-01T00:08:52.860Z,9.48
2023-05-01T00:11:19.519Z,9.02
2023-05-01T00:13:46.494Z,8.70
2023-05-01T00:16:13.250Z,8.88
2023-05-01T00:18:39.933Z,9.35
2023-05-01T00:21:06.568Z,9.32
2023-05-01T00:23:33.446Z,8.32
2023-05-01T00:26:00.147Z,9.23
2023-05-01T00:28:26.810Z,9.48
2023-05-01T00:30:53.488Z,9.85
2023-05-01T00:33:20.809Z,9.27
2023-05-01T00:35:47.683Z,10.50
2023-05-01T00:38:14.459Z,9.13
2023-05-01T00:40:41.355Z,9.88
2023-05-01T00:43:08.023Z,10.45
2023-05-01T00:45:34.721Z,11.57
2023-05-01T00:48:03.136Z,10.95
2023-05-01T00:50:30.204Z,10.60
2023-05-01T00:52:57.091Z,10.05
2023-05-01T00:55:23.731Z,11.55
2023-05-01T00:57:50.390Z,10.75
2023-05-01T01:00:20.004Z,10.63
2023-05-01T01:02:46.814Z,10.35
2023-05-01T01:05:14.857Z,11.93
2023-05-01T01:07:41.556Z,10.63
2023-05-01T01:10:08.185Z,11.57
2023-05-01T01:12:35.620Z,11.32
2023-05-01T01:15:02.294Z,11.20
2023-05-01T01:17:29.685Z,11.73
2023-05-01T01:19:56.654Z,11.85
2023-05-01T01:22:23.902Z,11.15
2023-05-01T01:24:50.821Z,11.65
2023-05-01T01:27:17.487Z,11.43
2023-05-01T01:29:44.099Z,9.40
2023-05-01T01:32:10.745Z,10.27
2023-05-01T01:34:37.423Z,9.50
2023-05-01T01:37:07.207Z,9.88
2023-05-01T01:39:34.462Z,9.27
2023-05-01T01:42:01.215Z,10.65
2023-05-01T01:44:27.907Z,8.90
2023-05-01T01:46:54.575Z,9.80
2023-05-01T01:49:21.487Z,9.98
2023-05-01T01:51:48.216Z,9.98
2023-05-01T01:54:14.849Z,11.25
2023-05-01T01:56:42.169Z,11.10
2023-05-01T01:59:09.330Z,12.77
2023-05-01T02:01:35.995Z,11.65
2023-05-01T02:04:03.533Z,10.32
2023-05-01T02:06:31.712Z,10.27
2023-05-01T02:08:58.393Z,10.45
2023-05-01T02:11:25.185Z,10.48
2023-05-01T02:13:52.964Z,9.90
2023-05-01T02:16:19.759Z,11.30
2023-05-01T02:18:46.645Z,10.25
2023-05-01T02:21:13.381Z,10.32
2023-05-01T02:23:40.026Z,10.10
2023-05-01T02:26:06.710Z,10.60
2023-05-01T02:28:34.131Z,10.10
2023-05-01T02:31:01.167Z,11.00
2023-05-01T02:33:28.325Z,11.10
2023-05-01T02:35:55.013Z,10.10
2023-05-01T02:38:22.149Z,9.88
2023-05-01T02:40:49.065Z,9.77
2023-05-01T02:43:15.698Z,10.50
2023-05-01T02:45:42.461Z,10.25
2023-05-01T02:48:09.337Z,9.07
2023-05-01T02:50:36.411Z,10.18
2023-05-01T02:53:03.222Z,9.05
2023-05-01T02:55:39.310Z,10.32
2023-05-01T02:58:05.940Z,9.75
2023-05-01T03:00:32.706Z,8.73
2023-05-01T03:02:59.381Z,10.60
2023-05-01T03:05:26.830Z,10.65
2023-05-01T03:07:53.507Z,11.00
2023-05-01T03:10:20.144Z,10.95
2023-05-01T03:12:46.840Z,10.93
2023-05-01T03:15:13.566Z,10.27
2023-05-01T03:17:40.300Z,10.27
2023-05-01T03:20:07.485Z,10.05
2023-05-01T03:22:34.285Z,11.18
2023-05-01T03:25:01.556Z,10.88
2023-05-01T03:27:28.287Z,10.85
2023-05-01T03:29:55.084Z,11.13
2023-05-01T03:32:22.924Z,10.75
2023-05-01T03:34:51.168Z,10.63
2023-05-01T03:37:18.574Z,10.73
2023-05-01T03:39:46.624Z,10.15
2023-05-01T03:42:31.993Z,11.18
2023-05-01T03:45:05.680Z,10.88
2023-05-01T03:47:32.894Z,11.25
2023-05-01T03:49:59.550Z,10.40
2023-05-01T03:52:26.531Z,10.02
2023-05-01T03:54:53.921Z,9.25
2023-05-01T03:57:23.655Z,10.02
2023-05-01T03:59:50.855Z,10.00
2023-05-01T04:02:19.227Z,10.02
2023-05-01T04:04:46.006Z,9.85
2023-05-01T04:07:12.796Z,9.07
2023-05-01T04:09:39.854Z,9.40
2023-05-01T04:12:06.591Z,10.02
2023-05-01T04:14:33.344Z,11.02
2023-05-01T04:17:00.123Z,10.90
2023-05-01T04:19:29.455Z,11.00
2023-05-01T04:21:58.383Z,11.85
2023-05-01T04:24:25.903Z,10.38
2023-05-01T04:26:53.677Z,10.98
2023-05-01T04:29:20.552Z,10.68
2023-05-01T04:31:47.643Z,10.73
2023-05-01T04:34:14.535Z,8.98
2023-05-01T04:36:41.236Z,9.25
2023-05-01T04:39:07.950Z,7.57
2023-05-01T04:41:34.658Z,7.25
2023-05-01T04:44:01.552Z,7.03
2023-05-01T04:46:28.494Z,7.47
2023-05-01T04:48:55.229Z,6.97
2023-05-01T04:51:22.465Z,7.43
2023-05-01T04:53:50.089Z,7.63
2023-05-01T04:56:21.855Z,8.00
2023-05-01T05:01:23.378Z,6.80
2023-05-01T05:03:51.074Z,8.10
2023-05-01T05:06:18.056Z,7.75
2023-05-01T05:08:44.738Z,6.60
2023-05-01T05:11:11.654Z,6.70
2023-05-01T05:13:58.557Z,5.47
2023-05-01T05:16:25.450Z,6.40
2023-05-01T05:18:52.550Z,6.15
2023-05-01T05:21:19.360Z,5.45
2023-05-01T05:23:51.132Z,5.80
2023-05-01T05:26:18.550Z,5.82
2023-05-01T05:28:45.673Z,5.50
2023-05-01T05:31:12.389Z,5.50
2023-05-01T05:33:39.369Z,5.20
2023-05-01T05:36:06.699Z,5.20
2023-05-01T05:38:38.964Z,5.57
2023-05-01T05:41:07.355Z,5.53
2023-05-01T05:43:34.021Z,5.03
2023-05-01T05:46:00.932Z,5.28
2023-05-01T05:48:28.924Z,4.47
2023-05-01T05:50:56.678Z,4.57
2023-05-01T05:53:25.979Z,4.28
2023-05-01T05:55:53.435Z,4.50
2023-05-01T05:58:20.170Z,4.22
2023-05-01T06:00:48.635Z,4.07
2023-05-01T06:03:16.030Z,3.63
2023-05-01T06:05:43.655Z,3.85
2023-05-01T06:08:14.610Z,3.83
2023-05-01T06:10:41.803Z,3.20
2023-05-01T06:13:13.640Z,3.25
2023-05-01T06:15:43.808Z,3.40
2023-05-01T06:18:11.824Z,3.25
2023-05-01T06:20:39.367Z,3.10
2023-05-01T06:23:06.059Z,2.90
2023-05-01T06:25:43.626Z,3.00
2023-05-01T06:28:30.363Z,3.08
2023-05-01T06:30:57.034Z,3.38
2023-05-01T06:33:25.792Z,3.70
2023-05-01T06:36:07.069Z,4.35
2023-05-01T06:38:35.021Z,3.45
2023-05-01T06:41:01.740Z,3.65
2023-05-01T06:43:30.747Z,3.90
2023-05-01T06:45:57.442Z,3.45
2023-05-01T06:48:26.437Z,3.72
2023-05-01T06:50:53.491Z,3.65
2023-05-01T06:53:20.144Z,3.13
2023-05-01T06:55:46.808Z,3.60
2023-05-01T06:58:23.379Z,3.33
2023-05-01T07:00:50.749Z,3.45
2023-05-01T07:03:17.539Z,3.28
2023-05-01T07:05:44.360Z,3.50
2023-05-01T07:08:12.255Z,2.80
2023-05-01T07:10:41.806Z,3.47
2023-05-01T07:13:09.194Z,3.10
2023-05-01T07:15:35.804Z,3.65
2023-05-01T07:18:03.277Z,3.10
2023-05-01T07:20:30.518Z,3.38
2023-05-01T07:22:57.165Z,3.63
2023-05-01T07:25:25.035Z,3.50
2023-05-01T07:27:51.677Z,2.80
2023-05-01T07:30:18.351Z,3.20
2023-05-01T07:32:46.465Z,3.50
2023-05-01T07:35:13.622Z,2.85
2023-05-01T07:37:42.699Z,3.25
2023-05-01T07:40:09.607Z,3.42
2023-05-01T07:42:36.496Z,3.33
2023-05-01T07:45:03.242Z,3.50
2023-05-01T07:47:30.128Z,3.00
2023-05-01T07:49:57.456Z,3.60
2023-05-01T07:52:24.311Z,3.83
2023-05-01T07:54:51.123Z,3.45
2023-05-01T07:57:17.786Z,3.00
2023-05-01T07:59:44.563Z,3.30
2023-05-01T08:02:11.700Z,3.38
2023-05-01T08:04:38.391Z,3.25
2023-05-01T08:07:05.042Z,3.50
2023-05-01T08:09:31.972Z,3.38
2023-05-01T08:11:58.561Z,3.20
2023-05-01T08:14:25.399Z,3.40
2023-05-01T08:16:55.353Z,3.10
2023-05-01T08:19:22.214Z,4.03
2023-05-01T08:21:48.866Z,3.15
2023-05-01T08:24:15.540Z,3.67
2023-05-01T08:26:42.157Z,4.05
2023-05-01T08:29:08.787Z,3.95
2023-05-01T08:31:37.826Z,3.20
2023-05-01T08:34:04.651Z,3.80
2023-05-01T08:36:32.982Z,3.05
2023-05-01T08:38:59.608Z,3.63
2023-05-01T08:41:26.444Z,3.42
2023-05-01T08:43:53.076Z,3.30
2023-05-01T08:46:22.900Z,3.33
2023-05-01T08:48:49.711Z,3.50
2023-05-01T08:51:19.050Z,3.75
2023-05-01T08:53:46.259Z,3.83
2023-05-01T08:56:13.716Z,3.38
2023-05-01T08:58:40.375Z,3.80
2023-05-01T09:01:07.353Z,3.30
2023-05-01T09:03:34.201Z,3.90
2023-05-01T09:06:00.840Z,3.40
2023-05-01T09:08:27.651Z,3.60
2023-05-01T09:10:54.286Z,2.80
2023-05-01T09:13:21.164Z,2.60
2023-05-01T09:15:47.790Z,3.53
2023-05-01T09:18:14.460Z,3.08
2023-05-01T09:20:51.240Z,2.67
2023-05-01T09:23:20.160Z,2.88
2023-05-01T09:25:46.796Z,3.38
2023-05-01T09:28:13.442Z,2.95
2023-05-01T09:30:40.080Z,3.10
2023-05-01T09:33:06.912Z,3.22
2023-05-01T09:35:34.141Z,2.80
2023-05-01T09:38:00.884Z,4.10
2023-05-01T09:40:27.548Z,3.10
2023-05-01T09:42:56.046Z,3.05
2023-05-01T09:45:23.600Z,3.08
2023-05-01T09:47:50.447Z,3.05
2023-05-01T09:50:17.085Z,2.90
2023-05-01T09:52:43.704Z,3.17
2023-05-01T09:55:10.321Z,3.03
2023-05-01T09:57:38.293Z,3.40
2023-05-01T10:00:09.126Z,2.80
2023-05-01T10:02:36.200Z,3.00
2023-05-01T10:05:03.480Z,2.72
2023-05-01T10:07:30.368Z,3.10
2023-05-01T10:09:59.214Z,2.97
2023-05-01T10:12:27.579Z,3.60
2023-05-01T10:14:54.354Z,2.80
2023-05-01T10:17:21.409Z,3.30
2023-05-01T10:19:48.758Z,3.67
2023-05-01T10:22:15.425Z,3.13
2023-05-01T10:24:42.781Z,3.30
2023-05-01T10:27:10.227Z,3.20
2023-05-01T10:29:36.945Z,3.42
2023-05-01T10:32:03.623Z,3.30
2023-05-01T10:34:30.307Z,3.78
2023-05-01T10:36:56.978Z,2.95
2023-05-01T10:39:23.592Z,3.28
2023-05-01T10:41:50.223Z,3.08
2023-05-01T10:44:16.884Z,2.97
2023-05-01T10:46:44.512Z,3.13
2023-05-01T10:49:12.819Z,3.35
2023-05-01T10:51:39.438Z,3.20
2023-05-01T10:54:06.089Z,3.00
2023-05-01T10:56:32.743Z,2.88
2023-05-01T10:58:59.490Z,3.10
2023-05-01T11:01:26.192Z,2.95
2023-05-01T11:03:52.860Z,2.70
2023-05-01T11:06:19.517Z,2.88
2023-05-01T11:08:48.544Z,3.17
2023-05-01T11:11:15.233Z,3.13
2023-05-01T11:13:41.876Z,2.95
2023-05-01T11:16:08.582Z,2.58
2023-05-01T11:18:35.500Z,2.30
2023-05-01T11:21:02.244Z,2.60
2023-05-01T11:23:28.955Z,2.45
2023-05-01T11:25:55.578Z,2.53
2023-05-01T11:28:23.409Z,2.72
2023-05-01T11:30:50.177Z,2.45
2023-05-01T11:33:16.932Z,2.53
2023-05-01T11:35:43.663Z,2.40
2023-05-01T11:38:10.624Z,2.60
2023-05-01T11:40:37.959Z,2.22
2023-05-01T11:43:04.628Z,2.22
2023-05-01T11:45:31.474Z,2.20
2023-05-01T11:48:19.425Z,2.80
2023-05-01T11:50:46.194Z,2.70
2023-05-01T11:53:13.046Z,3.17
2023-05-01T11:55:40.262Z,2.40
2023-05-01T11:58:07.107Z,2.25
2023-05-01T12:00:34.046Z,2.22
2023-05-01T12:03:00.861Z,2.20
2023-05-01T12:05:28.321Z,1.98
2023-05-01T12:07:54.986Z,1.70
2023-05-01T12:10:21.707Z,2.20
2023-05-01T12:12:51.589Z,1.98
2023-05-01T12:15:18.381Z,2.78
2023-05-01T12:18:04.151Z,2.10
2023-05-01T12:20:30.825Z,1.90
2023-05-01T12:22:57.501Z,2.17
2023-05-01T12:25:24.145Z,1.90
2023-05-01T12:27:50.830Z,1.90
2023-05-01T12:30:17.479Z,2.00
2023-05-01T12:32:44.165Z,2.33
2023-05-01T12:35:10.830Z,2.00
2023-05-01T12:37:38.439Z,2.00
2023-05-01T12:40:05.504Z,2.20
2023-05-01T12:42:32.533Z,2.05
2023-05-01T12:44:59.662Z,2.05
2023-05-01T12:47:46.537Z,2.00
2023-05-01T12:50:13.179Z,2.13
2023-05-01T12:52:39.844Z,2.00
2023-05-01T12:55:09.023Z,1.85
2023-05-01T12:57:55.704Z,1.90
2023-05-01T13:00:22.676Z,1.90
2023-05-01T13:02:49.541Z,2.45
2023-05-01T13:05:16.319Z,2.00
2023-05-01T13:07:43.191Z,2.40
2023-05-01T13:10:09.837Z,2.10
2023-05-01T13:12:36.431Z,2.08
2023-05-01T13:15:03.038Z,2.30
2023-05-01T13:17:30.001Z,2.00
2023-05-01T13:19:57.021Z,2.10
2023-05-01T13:22:23.882Z,2.00
2023-05-01T13:24:51.121Z,2.55
2023-05-01T13:27:17.716Z,1.92
2023-05-01T13:29:46.281Z,1.95
2023-05-01T13:32:13.461Z,1.90
2023-05-01T13:34:40.202Z,1.95
2023-05-01T13:37:06.794Z,2.30
2023-05-01T13:39:33.806Z,2.22
2023-05-01T13:42:01.498Z,2.10
2023-05-01T13:44:29.189Z,2.03
2023-05-01T13:46:55.932Z,2.33
2023-05-01T13:49:44.901Z,2.05
2023-05-01T13:52:12.410Z,2.30
2023-05-01T13:54:39.013Z,2.28
2023-05-01T13:57:05.639Z,1.90
2023-05-01T13:59:32.717Z,2.38
2023-05-01T14:01:59.307Z,2.00
2023-05-01T14:04:25.960Z,2.00
2023-05-01T14:06:52.812Z,1.65
2023-05-01T14:09:38.390Z,2.03
2023-05-01T14:12:05.099Z,1.90
2023-05-01T14:14:31.699Z,1.83
2023-05-01T14:16:58.443Z,2.10
2023-05-01T14:19:28.268Z,1.52
2023-05-01T14:21:55.172Z,1.45
2023-05-01T14:24:21.756Z,1.05
2023-05-01T14:26:52.405Z,1.30
2023-05-01T14:29:20.270Z,1.60
2023-05-01T14:31:47.432Z,1.63
2023-05-01T14:34:14.184Z,1.38
2023-05-01T14:36:41.169Z,1.50
2023-05-01T14:39:27.084Z,1.77
2023-05-01T14:41:54.368Z,1.80
2023-05-01T14:44:21.111Z,1.30
2023-05-01T14:46:49.697Z,1.85
2023-05-01T14:49:16.726Z,1.63
2023-05-01T14:51:45.850Z,1.70
2023-05-01T14:54:12.592Z,1.98
2023-05-01T14:56:39.260Z,1.60
2023-05-01T14:59:25.993Z,2.00
2023-05-01T15:01:53.089Z,1.50
2023-05-01T15:04:20.006Z,1.80
2023-05-01T15:06:47.786Z,1.85
2023-05-01T15:09:14.790Z,1.50
2023-05-01T15:11:41.509Z,1.75
2023-05-01T15:14:08.582Z,1.63
2023-05-01T15:16:35.433Z,1.60
2023-05-01T15:19:03.370Z,1.98
2023-05-01T15:21:30.008Z,1.58
2023-05-01T15:23:56.611Z,1.50
2023-05-01T15:26:23.269Z,1.73
2023-05-01T15:32:04.565Z,1.48
2023-05-01T15:34:37.838Z,1.52
2023-05-01T15:37:04.502Z,1.40
2023-05-01T15:42:35.650Z,1.40
2023-05-01T15:45:03.329Z,1.40
2023-05-01T15:47:30.543Z,1.42
2023-05-01T15:49:57.372Z,1.60
2023-05-01T15:52:24.208Z,1.40
2023-05-01T15:54:51.855Z,1.40
2023-05-01T15:57:18.482Z,1.40
2023-05-01T15:59:45.196Z,1.40
2023-05-01T16:02:12.058Z,1.35
2023-05-01T16:04:39.125Z,1.33
2023-05-01T16:07:06.247Z,1.70
2023-05-01T16:09:33.168Z,1.42
2023-05-01T16:11:59.996Z,1.35
2023-05-01T16:14:26.743Z,1.40
2023-05-01T16:16:53.628Z,1.70
2023-05-01T16:19:23.637Z,1.58
2023-05-01T16:21:50.401Z,1.40
2023-05-01T16:24:17.037Z,1.60
2023-05-01T16:26:43.644Z,1.58
2023-05-01T16:29:12.631Z,1.58
2023-05-01T16:31:39.340Z,1.70
2023-05-01T16:34:06.440Z,1.80
2023-05-01T16:36:33.066Z,1.60
2023-05-01T16:39:00.690Z,1.85
2023-05-01T16:41:27.297Z,1.65
2023-05-01T16:43:53.887Z,1.90
2023-05-01T16:46:20.705Z,1.88
2023-05-01T16:49:07.422Z,1.70
2023-05-01T16:51:34.101Z,1.58
2023-05-01T16:54:00.740Z,1.90
2023-05-01T16:56:27.435Z,1.92
2023-05-01T16:58:56.577Z,1.98
2023-05-01T17:01:23.271Z,1.92
2023-05-01T17:03:50.061Z,1.83
2023-05-01T17:06:16.921Z,1.70
2023-05-01T17:11:56.923Z,1.90
2023-05-01T17:14:23.977Z,1.92
2023-05-01T17:16:50.928Z,1.45
2023-05-01T17:19:18.810Z,1.85
2023-05-01T17:21:45.698Z,2.10
2023-05-01T17:24:13.924Z,1.88
2023-05-01T17:26:40.560Z,1.83
2023-05-01T17:29:07.439Z,1.52
2023-05-01T17:31:34.511Z,1.73
2023-05-01T17:34:01.312Z,1.83
2023-05-01T17:36:29.294Z,2.00
2023-05-01T17:38:57.069Z,2.08
2023-05-01T17:41:24.805Z,1.92
2023-05-01T17:43:51.539Z,2.03
2023-05-01T17:46:18.523Z,2.40
2023-05-01T17:49:05.142Z,1.80
2023-05-01T17:51:33.147Z,1.95
2023-05-01T17:53:59.850Z,1.88
2023-05-01T17:56:27.270Z,2.17
2023-05-01T17:59:14.880Z,2.45
2023-05-01T18:01:41.721Z,1.70
2023-05-01T18:04:09.139Z,1.95
2023-05-01T18:06:36.279Z,1.98
2023-05-01T18:09:05.050Z,2.20
2023-05-01T18:11:31.638Z,1.92
2023-05-01T18:13:58.269Z,1.70
2023-05-01T18:16:24.967Z,1.90
2023-05-01T18:18:53.083Z,1.95
2023-05-01T18:21:19.746Z,1.77
2023-05-01T18:23:48.589Z,1.90
2023-05-01T18:26:16.581Z,1.90
2023-05-01T18:28:43.727Z,1.80
2023-05-01T18:31:10.534Z,2.05
2023-05-01T18:33:37.269Z,2.25
2023-05-01T18:36:04.030Z,1.70
2023-05-01T18:38:30.892Z,2.00
2023-05-01T18:40:57.587Z,1.88
2023-05-01T18:43:24.424Z,1.98
2023-05-01T18:45:51.177Z,2.88
2023-05-01T18:48:36.932Z,4.05
2023-05-01T18:51:09.010Z,2.63
2023-05-01T18:53:36.251Z,2.67
2023-05-01T18:56:02.928Z,3.42
2023-05-01T18:58:48.568Z,2.38
2023-05-01T19:01:15.220Z,3.13
2023-05-01T19:03:41.822Z,3.00
2023-05-01T19:06:10.420Z,2.50
2023-05-01T19:08:57.137Z,2.92
2023-05-01T19:11:26.257Z,3.60
2023-05-01T19:13:52.917Z,2.90
2023-05-01T19:16:19.605Z,2.80
2023-05-01T19:18:48.484Z,3.33
2023-05-01T19:21:15.525Z,4.40
2023-05-01T19:23:43.250Z,2.70
2023-05-01T19:26:10.016Z,3.83
2023-05-01T19:28:38.566Z,2.60
2023-05-01T19:31:05.635Z,3.47
2023-05-01T19:33:32.256Z,4.22
2023-05-01T19:35:59.002Z,3.90
2023-05-01T19:38:44.581Z,3.05
2023-05-01T19:41:11.318Z,5.82
2023-05-01T19:43:37.918Z,6.45
2023-05-01T19:46:04.717Z,3.20
2023-05-01T19:48:32.606Z,6.03
2023-05-01T19:50:59.267Z,4.97
2023-05-01T19:53:28.236Z,4.70
2023-05-01T19:55:55.057Z,4.60
2023-05-01T19:58:26.598Z,5.38
2023-05-01T20:00:58.253Z,6.60
2023-05-01T20:03:25.142Z,5.57
2023-05-01T20:05:51.858Z,5.55
2023-05-01T20:08:19.718Z,4.97
2023-05-01T20:10:46.314Z,6.80
2023-05-01T20:13:13.079Z,5.05
2023-05-01T20:15:39.719Z,5.53
2023-05-01T20:18:06.834Z,5.10
2023-05-01T20:20:35.020Z,5.45
2023-05-01T20:23:03.576Z,4.88
2023-05-01T20:25:30.181Z,5.07
2023-05-01T20:27:59.222Z,5.18
2023-05-01T20:30:25.846Z,4.80
2023-05-01T20:32:52.581Z,4.63
2023-05-01T20:35:19.293Z,5.07
2023-05-01T20:38:06.934Z,4.70
2023-05-01T20:40:36.155Z,4.53
2023-05-01T20:43:09.335Z,4.63
2023-05-01T20:45:39.425Z,4.97
2023-05-01T20:48:12.034Z,4.80
2023-05-01T20:50:38.878Z,4.40
2023-05-01T20:53:05.577Z,4.22
2023-05-01T20:55:32.242Z,4.22
2023-05-01T20:58:17.914Z,4.50
2023-05-01T21:00:44.703Z,4.10
2023-05-01T21:03:11.455Z,4.28
2023-05-01T21:05:38.226Z,4.47
2023-05-01T21:08:24.023Z,3.83
2023-05-01T21:10:50.749Z,3.30
2023-05-01T21:13:18.854Z,3.35
2023-05-01T21:15:45.649Z,3.42
2023-05-01T21:18:12.605Z,2.40
2023-05-01T21:20:39.406Z,2.78
2023-05-01T21:23:06.172Z,2.97
2023-05-01T21:25:33.058Z,2.63
2023-05-01T21:28:08.791Z,2.53
2023-05-01T21:30:37.326Z,3.45
2023-05-01T21:33:04.283Z,2.78
2023-05-01T21:35:31.289Z,2.58
2023-05-01T21:37:59.310Z,2.50
2023-05-01T21:40:26.215Z,2.63
2023-05-01T21:42:53.042Z,2.17
2023-05-01T21:45:19.773Z,2.40
2023-05-01T21:47:46.604Z,2.58
2023-05-01T21:50:13.464Z,2.20
2023-05-01T21:52:40.219Z,2.50
2023-05-01T21:55:06.811Z,2.10
2023-05-01T21:57:53.460Z,2.10
2023-05-01T22:00:20.096Z,2.28
2023-05-01T22:02:47.008Z,2.15
2023-05-01T22:05:13.715Z,2.35
2023-05-01T22:07:41.692Z,2.30
2023-05-01T22:10:08.432Z,2.47
2023-05-01T22:12:35.584Z,2.42
2023-05-01T22:15:02.790Z,1.90
2023-05-01T22:17:32.381Z,2.72
2023-05-01T22:19:59.258Z,2.28
2023-05-01T22:22:26.341Z,2.22
2023-05-01T22:24:53.173Z,2.40
2023-05-01T22:27:20.016Z,2.10
2023-05-01T22:29:46.791Z,2.35
2023-05-01T22:32:13.672Z,2.30
2023-05-01T22:34:41.190Z,2.40
2023-05-01T22:37:07.914Z,2.20
2023-05-01T22:39:36.284Z,2.38
2023-05-01T22:42:02.887Z,2.83
2023-05-01T22:44:29.529Z,1.98
2023-05-01T22:46:56.376Z,2.20
2023-05-01T22:49:24.342Z,2.22
2023-05-01T22:51:51.026Z,2.25
2023-05-01T22:54:17.611Z,2.47
2023-05-01T22:56:44.587Z,2.45
2023-05-01T22:59:12.356Z,1.80
2023-05-01T23:01:38.976Z,2.30
2023-05-01T23:04:05.871Z,2.30
2023-05-01T23:06:32.812Z,2.22
2023-05-01T23:09:00.619Z,2.10
2023-05-01T23:11:27.219Z,2.30
2023-05-01T23:13:53.973Z,2.55
2023-05-01T23:16:20.785Z,2.20
2023-05-01T23:19:10.626Z,2.20
2023-05-01T23:21:38.137Z,2.00
2023-05-01T23:24:04.716Z,2.10
2023-05-01T23:26:32.990Z,2.13
2023-05-01T23:29:00.218Z,2.15
2023-05-01T23:31:26.960Z,2.15
2023-05-01T23:33:53.688Z,1.90
2023-05-01T23:36:20.429Z,1.80
2023-05-01T23:38:48.327Z,2.45
2023-05-01T23:41:15.119Z,1.90
2023-05-01T23:43:41.803Z,1.80
2023-05-01T23:46:08.525Z,2.10
2023-05-01T23:48:37.294Z,1.70
2023-05-01T23:51:04.027Z,2.05
2023-05-01T23:53:30.684Z,1.70
2023-05-01T23:55:57.827Z,1.75
2023-05-01T23:58:44.961Z,2.00
